Terminal Aerodrome Forecast
Issued by NWS

Home | Current Version | Previous Version | Text Only | Print | Product List | Glossary On
Versions: 1 2 3 4 5 6 7 8 9 10 11 12 13 14 15 16 17 18 19 20 21 22 23 24
000
FTUS45 KGJT 171739
TAFDRO
TAF
KDRO 171739Z 1718/1818 VRB03KT P6SM VCSH SCT020 BKN050
      TEMPO 1720/1724 4SM -SN BR BKN020 OVC050
     FM180100 21003KT P6SM VCFG FEW008 OVC030
     FM181000 06005KT P6SM SCT030 BKN050=

USA.gov is the U.S. government's official web portal to all federal, state and local government web resources and services.